sensor_id;sensor_type;location;lat;lon;timestamp;P1;durP1;ratioP1;P2;durP2;ratioP2
23300;SDS011;11819;51.394;12.340;2023-02-19T00:01:26;11.82;;;5.07;;
23300;SDS011;11819;51.394;12.340;2023-02-19T00:04:04;11.20;;;5.72;;
23300;SDS011;11819;51.394;12.340;2023-02-19T00:06:37;10.10;;;5.75;;
23300;SDS011;11819;51.394;12.340;2023-02-19T00:09:04;12.98;;;5.75;;
23300;SDS011;11819;51.394;12.340;2023-02-19T00:11:31;10.90;;;5.72;;
23300;SDS011;11819;51.394;12.340;2023-02-19T00:13:58;12.35;;;5.70;;
23300;SDS011;11819;51.394;12.340;2023-02-19T00:16:26;9.02;;;4.93;;
23300;SDS011;11819;51.394;12.340;2023-02-19T00:18:54;10.02;;;4.90;;
23300;SDS011;11819;51.394;12.340;2023-02-19T00:21:20;9.40;;;4.68;;
23300;SDS011;11819;51.394;12.340;2023-02-19T00:23:47;10.20;;;5.05;;
23300;SDS011;11819;51.394;12.340;2023-02-19T00:26:17;11.23;;;5.05;;
23300;SDS011;11819;51.394;12.340;2023-02-19T00:28:44;9.77;;;5.50;;
23300;SDS011;11819;51.394;12.340;2023-02-19T00:33:39;10.93;;;5.43;;
23300;SDS011;11819;51.394;12.340;2023-02-19T00:36:06;10.38;;;5.70;;
23300;SDS011;11819;51.394;12.340;2023-02-19T00:38:34;11.23;;;5.97;;
23300;SDS011;11819;51.394;12.340;2023-02-19T00:41:01;14.52;;;5.85;;
23300;SDS011;11819;51.394;12.340;2023-02-19T00:46:17;12.23;;;6.10;;
23300;SDS011;11819;51.394;12.340;2023-02-19T00:48:44;11.23;;;6.07;;
23300;SDS011;11819;51.394;12.340;2023-02-19T00:51:10;12.30;;;6.60;;
23300;SDS011;11819;51.394;12.340;2023-02-19T00:53:36;12.45;;;6.28;;
23300;SDS011;11819;51.394;12.340;2023-02-19T00:56:02;12.93;;;6.68;;
23300;SDS011;11819;51.394;12.340;2023-02-19T00:58:29;13.10;;;6.80;;
23300;SDS011;11819;51.394;12.340;2023-02-19T01:00:55;14.30;;;6.63;;
23300;SDS011;11819;51.394;12.340;2023-02-19T01:03:21;13.40;;;6.78;;
23300;SDS011;11819;51.394;12.340;2023-02-19T01:05:47;13.95;;;7.43;;
23300;SDS011;11819;51.394;12.340;2023-02-19T01:08:13;12.23;;;6.90;;
23300;SDS011;11819;51.394;12.340;2023-02-19T01:10:39;12.23;;;6.35;;
23300;SDS011;11819;51.394;12.340;2023-02-19T01:13:05;15.93;;;7.45;;
23300;SDS011;11819;51.394;12.340;2023-02-19T01:15:33;12.73;;;6.93;;
23300;SDS011;11819;51.394;12.340;2023-02-19T01:17:59;9.32;;;5.38;;
23300;SDS011;11819;51.394;12.340;2023-02-19T01:20:26;14.75;;;7.65;;
23300;SDS011;11819;51.394;12.340;2023-02-19T01:22:52;12.23;;;6.22;;
23300;SDS011;11819;51.394;12.340;2023-02-19T01:25:17;14.65;;;7.40;;
23300;SDS011;11819;51.394;12.340;2023-02-19T01:27:43;13.07;;;6.72;;
23300;SDS011;11819;51.394;12.340;2023-02-19T01:30:09;15.23;;;7.45;;
23300;SDS011;11819;51.394;12.340;2023-02-19T01:32:35;12.60;;;7.63;;
23300;SDS011;11819;51.394;12.340;2023-02-19T01:35:01;12.88;;;7.63;;
23300;SDS011;11819;51.394;12.340;2023-02-19T01:37:27;13.07;;;7.40;;
23300;SDS011;11819;51.394;12.340;2023-02-19T01:39:52;12.48;;;7.93;;
23300;SDS011;11819;51.394;12.340;2023-02-19T01:42:18;14.93;;;7.65;;
23300;SDS011;11819;51.394;12.340;2023-02-19T01:47:09;14.65;;;7.50;;
23300;SDS011;11819;51.394;12.340;2023-02-19T01:49:37;13.60;;;6.85;;
23300;SDS011;11819;51.394;12.340;2023-02-19T01:52:15;12.18;;;6.68;;
23300;SDS011;11819;51.394;12.340;2023-02-19T01:54:49;14.07;;;6.80;;
23300;SDS011;11819;51.394;12.340;2023-02-19T01:57:21;13.05;;;6.25;;
23300;SDS011;11819;51.394;12.340;2023-02-19T01:59:49;12.55;;;5.65;;
23300;SDS011;11819;51.394;12.340;2023-02-19T02:02:20;11.13;;;5.70;;
23300;SDS011;11819;51.394;12.340;2023-02-19T02:04:46;13.73;;;6.10;;
23300;SDS011;11819;51.394;12.340;2023-02-19T02:07:14;11.82;;;6.15;;
23300;SDS011;11819;51.394;12.340;2023-02-19T02:09:58;14.30;;;6.43;;
23300;SDS011;11819;51.394;12.340;2023-02-19T02:12:42;14.38;;;6.75;;
23300;SDS011;11819;51.394;12.340;2023-02-19T02:15:08;14.48;;;6.55;;
23300;SDS011;11819;51.394;12.340;2023-02-19T02:34:55;21.45;;;9.90;;
23300;SDS011;11819;51.394;12.340;2023-02-19T02:37:25;19.17;;;9.63;;
23300;SDS011;11819;51.394;12.340;2023-02-19T02:39:57;15.38;;;8.45;;
23300;SDS011;11819;51.394;12.340;2023-02-19T02:42:24;14.98;;;7.07;;
23300;SDS011;11819;51.394;12.340;2023-02-19T02:45:33;13.45;;;6.80;;
23300;SDS011;11819;51.394;12.340;2023-02-19T02:48:34;12.40;;;5.78;;
23300;SDS011;11819;51.394;12.340;2023-02-19T02:54:09;8.30;;;4.22;;
23300;SDS011;11819;51.394;12.340;2023-02-19T02:56:59;8.38;;;3.85;;
23300;SDS011;11819;51.394;12.340;2023-02-19T02:59:31;9.00;;;4.80;;
23300;SDS011;11819;51.394;12.340;2023-02-19T03:02:05;9.50;;;4.43;;
23300;SDS011;11819;51.394;12.340;2023-02-19T03:07:57;6.82;;;3.30;;
23300;SDS011;11819;51.394;12.340;2023-02-19T03:10:32;8.82;;;3.50;;
23300;SDS011;11819;51.394;12.340;2023-02-19T03:13:03;5.65;;;2.40;;
23300;SDS011;11819;51.394;12.340;2023-02-19T03:15:52;4.97;;;2.78;;
23300;SDS011;11819;51.394;12.340;2023-02-19T03:18:41;5.72;;;3.15;;
23300;SDS011;11819;51.394;12.340;2023-02-19T03:21:29;8.07;;;3.45;;
23300;SDS011;11819;51.394;12.340;2023-02-19T03:23:58;7.43;;;3.80;;
23300;SDS011;11819;51.394;12.340;2023-02-19T03:26:43;8.48;;;4.28;;
23300;SDS011;11819;51.394;12.340;2023-02-19T03:29:22;10.00;;;3.90;;
23300;SDS011;11819;51.394;12.340;2023-02-19T03:31:59;7.30;;;3.70;;
23300;SDS011;11819;51.394;12.340;2023-02-19T03:34:29;9.30;;;4.70;;
23300;SDS011;11819;51.394;12.340;2023-02-19T03:37:09;6.55;;;3.83;;
23300;SDS011;11819;51.394;12.340;2023-02-19T03:39:41;6.03;;;3.47;;
23300;SDS011;11819;51.394;12.340;2023-02-19T03:50:47;6.40;;;3.47;;
23300;SDS011;11819;51.394;12.340;2023-02-19T03:56:33;5.43;;;2.10;;
23300;SDS011;11819;51.394;12.340;2023-02-19T04:01:59;3.20;;;1.95;;
23300;SDS011;11819;51.394;12.340;2023-02-19T04:04:44;5.53;;;1.83;;
23300;SDS011;11819;51.394;12.340;2023-02-19T04:07:16;2.22;;;1.15;;
23300;SDS011;11819;51.394;12.340;2023-02-19T04:09:43;2.38;;;1.30;;
23300;SDS011;11819;51.394;12.340;2023-02-19T04:12:16;2.30;;;0.85;;
23300;SDS011;11819;51.394;12.340;2023-02-19T04:14:58;2.72;;;0.90;;
23300;SDS011;11819;51.394;12.340;2023-02-19T04:17:34;3.47;;;0.90;;
23300;SDS011;11819;51.394;12.340;2023-02-19T04:20:04;2.45;;;1.00;;
23300;SDS011;11819;51.394;12.340;2023-02-19T04:22:33;3.28;;;0.95;;
23300;SDS011;11819;51.394;12.340;2023-02-19T04:25:00;1.10;;;0.68;;
23300;SDS011;11819;51.394;12.340;2023-02-19T04:27:25;1.65;;;0.93;;
23300;SDS011;11819;51.394;12.340;2023-02-19T04:29:51;1.55;;;1.10;;
23300;SDS011;11819;51.394;12.340;2023-02-19T04:32:17;4.05;;;1.45;;
23300;SDS011;11819;51.394;12.340;2023-02-19T04:34:42;1.83;;;1.20;;
23300;SDS011;11819;51.394;12.340;2023-02-19T04:37:08;3.42;;;1.35;;
23300;SDS011;11819;51.394;12.340;2023-02-19T04:39:33;2.60;;;0.95;;
23300;SDS011;11819;51.394;12.340;2023-02-19T04:41:59;2.25;;;1.23;;
23300;SDS011;11819;51.394;12.340;2023-02-19T04:44:25;2.15;;;1.20;;
23300;SDS011;11819;51.394;12.340;2023-02-19T04:46:50;1.42;;;0.80;;
23300;SDS011;11819;51.394;12.340;2023-02-19T04:49:16;0.82;;;0.70;;
23300;SDS011;11819;51.394;12.340;2023-02-19T04:51:41;1.20;;;0.60;;
23300;SDS011;11819;51.394;12.340;2023-02-19T04:54:07;0.95;;;0.68;;
23300;SDS011;11819;51.394;12.340;2023-02-19T04:56:32;1.48;;;0.57;;
23300;SDS011;11819;51.394;12.340;2023-02-19T04:58:58;0.88;;;0.50;;
23300;SDS011;11819;51.394;12.340;2023-02-19T05:01:24;0.65;;;0.50;;
23300;SDS011;11819;51.394;12.340;2023-02-19T05:03:50;1.15;;;0.80;;
23300;SDS011;11819;51.394;12.340;2023-02-19T05:06:16;0.65;;;0.52;;
23300;SDS011;11819;51.394;12.340;2023-02-19T05:08:42;0.88;;;0.50;;
23300;SDS011;11819;51.394;12.340;2023-02-19T05:11:08;1.73;;;0.65;;
23300;SDS011;11819;51.394;12.340;2023-02-19T05:13:35;1.02;;;0.75;;
23300;SDS011;11819;51.394;12.340;2023-02-19T05:16:03;2.47;;;1.30;;
23300;SDS011;11819;51.394;12.340;2023-02-19T05:18:37;2.58;;;1.55;;
23300;SDS011;11819;51.394;12.340;2023-02-19T05:21:03;2.75;;;1.70;;
23300;SDS011;11819;51.394;12.340;2023-02-19T05:23:29;3.40;;;1.60;;
23300;SDS011;11819;51.394;12.340;2023-02-19T05:25:55;3.55;;;1.80;;
23300;SDS011;11819;51.394;12.340;2023-02-19T05:28:21;2.88;;;1.67;;
23300;SDS011;11819;51.394;12.340;2023-02-19T05:30:52;3.28;;;1.50;;
23300;SDS011;11819;51.394;12.340;2023-02-19T05:33:20;2.58;;;1.52;;
23300;SDS011;11819;51.394;12.340;2023-02-19T05:35:48;2.50;;;1.40;;
23300;SDS011;11819;51.394;12.340;2023-02-19T05:38:15;4.25;;;1.80;;
23300;SDS011;11819;51.394;12.340;2023-02-19T05:40:41;3.55;;;1.50;;
23300;SDS011;11819;51.394;12.340;2023-02-19T05:43:07;4.40;;;2.05;;
23300;SDS011;11819;51.394;12.340;2023-02-19T05:45:33;4.30;;;1.90;;
23300;SDS011;11819;51.394;12.340;2023-02-19T05:47:59;6.18;;;2.40;;
23300;SDS011;11819;51.394;12.340;2023-02-19T05:50:25;3.97;;;2.38;;
23300;SDS011;11819;51.394;12.340;2023-02-19T05:52:52;5.10;;;3.03;;
23300;SDS011;11819;51.394;12.340;2023-02-19T05:55:17;4.43;;;2.28;;
23300;SDS011;11819;51.394;12.340;2023-02-19T05:57:44;3.97;;;2.25;;
23300;SDS011;11819;51.394;12.340;2023-02-19T06:00:12;3.78;;;2.10;;
23300;SDS011;11819;51.394;12.340;2023-02-19T06:02:39;3.08;;;2.15;;
23300;SDS011;11819;51.394;12.340;2023-02-19T06:05:05;4.30;;;2.28;;
23300;SDS011;11819;51.394;12.340;2023-02-19T06:07:31;3.45;;;2.22;;
23300;SDS011;11819;51.394;12.340;2023-02-19T06:09:57;4.70;;;2.50;;
23300;SDS011;11819;51.394;12.340;2023-02-19T06:12:23;4.57;;;2.20;;
23300;SDS011;11819;51.394;12.340;2023-02-19T06:14:49;4.85;;;2.47;;
23300;SDS011;11819;51.394;12.340;2023-02-19T06:17:15;5.40;;;2.60;;
23300;SDS011;11819;51.394;12.340;2023-02-19T06:19:41;6.72;;;2.70;;
23300;SDS011;11819;51.394;12.340;2023-02-19T06:22:06;6.00;;;2.97;;
23300;SDS011;11819;51.394;12.340;2023-02-19T06:24:33;5.85;;;3.10;;
23300;SDS011;11819;51.394;12.340;2023-02-19T06:27:00;4.75;;;2.58;;
23300;SDS011;11819;51.394;12.340;2023-02-19T06:29:25;3.65;;;2.15;;
23300;SDS011;11819;51.394;12.340;2023-02-19T06:31:51;4.45;;;2.40;;
23300;SDS011;11819;51.394;12.340;2023-02-19T06:34:17;5.65;;;2.28;;
23300;SDS011;11819;51.394;12.340;2023-02-19T06:36:42;8.60;;;4.22;;
23300;SDS011;11819;51.394;12.340;2023-02-19T06:39:08;6.65;;;3.53;;
23300;SDS011;11819;51.394;12.340;2023-02-19T06:41:34;6.38;;;3.40;;
23300;SDS011;11819;51.394;12.340;2023-02-19T06:44:00;4.30;;;2.30;;
23300;SDS011;11819;51.394;12.340;2023-02-19T06:46:25;4.80;;;2.45;;
23300;SDS011;11819;51.394;12.340;2023-02-19T06:48:51;6.00;;;2.47;;
23300;SDS011;11819;51.394;12.340;2023-02-19T06:51:18;4.75;;;2.40;;
23300;SDS011;11819;51.394;12.340;2023-02-19T06:53:47;4.82;;;2.20;;
23300;SDS011;11819;51.394;12.340;2023-02-19T06:56:20;4.22;;;2.20;;
23300;SDS011;11819;51.394;12.340;2023-02-19T06:58:54;4.57;;;2.30;;
23300;SDS011;11819;51.394;12.340;2023-02-19T07:01:22;4.78;;;2.30;;
23300;SDS011;11819;51.394;12.340;2023-02-19T07:03:48;4.80;;;2.28;;
23300;SDS011;11819;51.394;12.340;2023-02-19T07:06:14;5.82;;;2.50;;
23300;SDS011;11819;51.394;12.340;2023-02-19T07:08:40;5.53;;;2.63;;
23300;SDS011;11819;51.394;12.340;2023-02-19T07:11:05;4.57;;;2.20;;
23300;SDS011;11819;51.394;12.340;2023-02-19T07:13:31;4.47;;;2.47;;
23300;SDS011;11819;51.394;12.340;2023-02-19T07:15:58;4.38;;;2.38;;
23300;SDS011;11819;51.394;12.340;2023-02-19T07:18:28;4.60;;;2.50;;
23300;SDS011;11819;51.394;12.340;2023-02-19T07:21:00;5.75;;;2.63;;
23300;SDS011;11819;51.394;12.340;2023-02-19T07:23:34;5.77;;;2.50;;
23300;SDS011;11819;51.394;12.340;2023-02-19T07:26:00;4.63;;;2.60;;
23300;SDS011;11819;51.394;12.340;2023-02-19T07:28:26;6.83;;;3.00;;
23300;SDS011;11819;51.394;12.340;2023-02-19T07:30:52;7.53;;;3.30;;
23300;SDS011;11819;51.394;12.340;2023-02-19T07:33:18;6.80;;;3.73;;
23300;SDS011;11819;51.394;12.340;2023-02-19T07:35:48;6.53;;;3.40;;
23300;SDS011;11819;51.394;12.340;2023-02-19T07:38:15;6.77;;;3.30;;
23300;SDS011;11819;51.394;12.340;2023-02-19T07:40:49;6.50;;;3.37;;
23300;SDS011;11819;51.394;12.340;2023-02-19T07:43:19;6.50;;;3.60;;
23300;SDS011;11819;51.394;12.340;2023-02-19T07:45:44;7.27;;;3.53;;
23300;SDS011;11819;51.394;12.340;2023-02-19T07:48:10;8.20;;;3.63;;
23300;SDS011;11819;51.394;12.340;2023-02-19T07:50:36;7.27;;;3.60;;
23300;SDS011;11819;51.394;12.340;2023-02-19T07:53:02;7.80;;;3.50;;
23300;SDS011;11819;51.394;12.340;2023-02-19T07:55:27;6.30;;;3.43;;
23300;SDS011;11819;51.394;12.340;2023-02-19T07:57:53;5.53;;;3.27;;
23300;SDS011;11819;51.394;12.340;2023-02-19T08:00:18;6.00;;;3.40;;
23300;SDS011;11819;51.394;12.340;2023-02-19T08:02:47;8.03;;;3.77;;
23300;SDS011;11819;51.394;12.340;2023-02-19T08:05:32;8.47;;;3.67;;
23300;SDS011;11819;51.394;12.340;2023-02-19T08:08:01;7.53;;;3.53;;
23300;SDS011;11819;51.394;12.340;2023-02-19T08:10:26;10.13;;;4.20;;
23300;SDS011;11819;51.394;12.340;2023-02-19T08:13:14;6.30;;;4.07;;
23300;SDS011;11819;51.394;12.340;2023-02-19T08:15:43;7.97;;;3.70;;
23300;SDS011;11819;51.394;12.340;2023-02-19T08:18:10;6.37;;;3.40;;
23300;SDS011;11819;51.394;12.340;2023-02-19T08:20:38;10.50;;;4.17;;
23300;SDS011;11819;51.394;12.340;2023-02-19T08:23:04;5.70;;;3.17;;
23300;SDS011;11819;51.394;12.340;2023-02-19T08:25:30;6.00;;;2.93;;
23300;SDS011;11819;51.394;12.340;2023-02-19T08:27:56;5.73;;;3.43;;
23300;SDS011;11819;51.394;12.340;2023-02-19T08:30:24;6.80;;;3.00;;
23300;SDS011;11819;51.394;12.340;2023-02-19T08:32:51;6.10;;;2.80;;
23300;SDS011;11819;51.394;12.340;2023-02-19T08:35:17;5.53;;;2.90;;
23300;SDS011;11819;51.394;12.340;2023-02-19T08:37:42;5.47;;;2.70;;
23300;SDS011;11819;51.394;12.340;2023-02-19T08:40:08;5.87;;;2.70;;
23300;SDS011;11819;51.394;12.340;2023-02-19T08:42:34;5.53;;;2.23;;
23300;SDS011;11819;51.394;12.340;2023-02-19T08:45:00;5.00;;;2.10;;
23300;SDS011;11819;51.394;12.340;2023-02-19T08:47:26;6.83;;;2.20;;
23300;SDS011;11819;51.394;12.340;2023-02-19T08:49:51;4.10;;;1.80;;
23300;SDS011;11819;51.394;12.340;2023-02-19T08:52:17;3.90;;;1.80;;
23300;SDS011;11819;51.394;12.340;2023-02-19T08:54:43;2.97;;;1.60;;
23300;SDS011;11819;51.394;12.340;2023-02-19T08:57:08;3.10;;;1.90;;
23300;SDS011;11819;51.394;12.340;2023-02-19T08:59:34;5.83;;;2.00;;
23300;SDS011;11819;51.394;12.340;2023-02-19T09:01:59;5.60;;;2.30;;
23300;SDS011;11819;51.394;12.340;2023-02-19T09:04:25;5.53;;;2.10;;
23300;SDS011;11819;51.394;12.340;2023-02-19T09:06:52;6.87;;;2.37;;
23300;SDS011;11819;51.394;12.340;2023-02-19T09:09:18;5.50;;;2.10;;
23300;SDS011;11819;51.394;12.340;2023-02-19T09:11:43;5.67;;;2.63;;
23300;SDS011;11819;51.394;12.340;2023-02-19T09:14:09;5.47;;;2.63;;
23300;SDS011;11819;51.394;12.340;2023-02-19T09:16:35;5.67;;;2.60;;
23300;SDS011;11819;51.394;12.340;2023-02-19T09:19:01;4.13;;;1.93;;
23300;SDS011;11819;51.394;12.340;2023-02-19T09:21:28;6.03;;;2.30;;
23300;SDS011;11819;51.394;12.340;2023-02-19T09:23:53;6.37;;;2.40;;
23300;SDS011;11819;51.394;12.340;2023-02-19T09:26:19;5.23;;;1.90;;
23300;SDS011;11819;51.394;12.340;2023-02-19T09:28:44;5.10;;;2.33;;
23300;SDS011;11819;51.394;12.340;2023-02-19T09:31:11;5.63;;;2.67;;
23300;SDS011;11819;51.394;12.340;2023-02-19T09:33:42;6.07;;;2.50;;
23300;SDS011;11819;51.394;12.340;2023-02-19T09:36:09;5.30;;;1.97;;
23300;SDS011;11819;51.394;12.340;2023-02-19T09:38:35;4.13;;;1.83;;
23300;SDS011;11819;51.394;12.340;2023-02-19T09:41:08;3.67;;;1.70;;
23300;SDS011;11819;51.394;12.340;2023-02-19T09:43:39;4.63;;;1.57;;
23300;SDS011;11819;51.394;12.340;2023-02-19T09:46:15;4.97;;;1.73;;
23300;SDS011;11819;51.394;12.340;2023-02-19T09:48:52;3.77;;;1.90;;
23300;SDS011;11819;51.394;12.340;2023-02-19T09:51:27;5.13;;;1.90;;
23300;SDS011;11819;51.394;12.340;2023-02-19T09:53:54;6.00;;;2.73;;
23300;SDS011;11819;51.394;12.340;2023-02-19T09:56:21;6.07;;;2.53;;
23300;SDS011;11819;51.394;12.340;2023-02-19T09:58:49;7.07;;;3.63;;
23300;SDS011;11819;51.394;12.340;2023-02-19T10:01:20;8.90;;;3.43;;
23300;SDS011;11819;51.394;12.340;2023-02-19T10:03:49;4.83;;;2.10;;
23300;SDS011;11819;51.394;12.340;2023-02-19T10:06:19;3.83;;;2.20;;
23300;SDS011;11819;51.394;12.340;2023-02-19T10:08:48;6.37;;;3.13;;
23300;SDS011;11819;51.394;12.340;2023-02-19T10:11:17;5.73;;;3.00;;
23300;SDS011;11819;51.394;12.340;2023-02-19T10:16:15;5.70;;;3.27;;
23300;SDS011;11819;51.394;12.340;2023-02-19T10:18:44;6.70;;;3.30;;
23300;SDS011;11819;51.394;12.340;2023-02-19T10:21:11;8.23;;;3.13;;
23300;SDS011;11819;51.394;12.340;2023-02-19T10:23:41;3.50;;;2.07;;
23300;SDS011;11819;51.394;12.340;2023-02-19T10:26:07;3.87;;;2.20;;
23300;SDS011;11819;51.394;12.340;2023-02-19T10:28:34;8.37;;;3.67;;
23300;SDS011;11819;51.394;12.340;2023-02-19T10:31:02;5.50;;;3.27;;
23300;SDS011;11819;51.394;12.340;2023-02-19T10:33:36;8.20;;;4.13;;
23300;SDS011;11819;51.394;12.340;2023-02-19T10:36:23;7.33;;;4.50;;
23300;SDS011;11819;51.394;12.340;2023-02-19T10:38:54;8.43;;;4.80;;
23300;SDS011;11819;51.394;12.340;2023-02-19T10:41:21;8.47;;;4.37;;
23300;SDS011;11819;51.394;12.340;2023-02-19T10:44:03;9.33;;;3.93;;
23300;SDS011;11819;51.394;12.340;2023-02-19T10:46:33;8.30;;;3.90;;
23300;SDS011;11819;51.394;12.340;2023-02-19T10:49:22;7.10;;;3.83;;
23300;SDS011;11819;51.394;12.340;2023-02-19T10:51:52;6.87;;;3.93;;
23300;SDS011;11819;51.394;12.340;2023-02-19T10:54:31;7.87;;;4.20;;
23300;SDS011;11819;51.394;12.340;2023-02-19T10:59:49;8.43;;;3.87;;
23300;SDS011;11819;51.394;12.340;2023-02-19T11:02:23;5.17;;;2.70;;
23300;SDS011;11819;51.394;12.340;2023-02-19T11:05:03;6.27;;;3.23;;
23300;SDS011;11819;51.394;12.340;2023-02-19T11:07:36;4.80;;;2.70;;
23300;SDS011;11819;51.394;12.340;2023-02-19T11:10:17;5.07;;;2.80;;
23300;SDS011;11819;51.394;12.340;2023-02-19T11:12:58;5.40;;;2.20;;
23300;SDS011;11819;51.394;12.340;2023-02-19T11:15:35;4.43;;;2.30;;
23300;SDS011;11819;51.394;12.340;2023-02-19T11:20:48;5.17;;;2.30;;
23300;SDS011;11819;51.394;12.340;2023-02-19T11:23:23;6.53;;;2.20;;
23300;SDS011;11819;51.394;12.340;2023-02-19T11:25:57;5.27;;;2.53;;
23300;SDS011;11819;51.394;12.340;2023-02-19T11:31:43;6.23;;;3.20;;
23300;SDS011;11819;51.394;12.340;2023-02-19T11:33:59;4.93;;;2.90;;
23300;SDS011;11819;51.394;12.340;2023-02-19T11:38:57;6.37;;;2.87;;
23300;SDS011;11819;51.394;12.340;2023-02-19T11:44:21;6.37;;;3.33;;
23300;SDS011;11819;51.394;12.340;2023-02-19T11:49:50;7.50;;;4.03;;
23300;SDS011;11819;51.394;12.340;2023-02-19T11:52:37;11.70;;;4.37;;
23300;SDS011;11819;51.394;12.340;2023-02-19T12:00:50;7.20;;;3.27;;
23300;SDS011;11819;51.394;12.340;2023-02-19T12:03:37;6.20;;;3.10;;
23300;SDS011;11819;51.394;12.340;2023-02-19T12:06:18;13.60;;;2.95;;
23300;SDS011;11819;51.394;12.340;2023-02-19T12:11:43;7.80;;;3.00;;
23300;SDS011;11819;51.394;12.340;2023-02-19T12:14:57;5.53;;;3.38;;
23300;SDS011;11819;51.394;12.340;2023-02-19T12:17:46;6.17;;;2.00;;
23300;SDS011;11819;51.394;12.340;2023-02-19T12:20:25;5.63;;;2.43;;
23300;SDS011;11819;51.394;12.340;2023-02-19T12:34:19;3.53;;;2.10;;
23300;SDS011;11819;51.394;12.340;2023-02-19T12:36:51;3.42;;;2.03;;
23300;SDS011;11819;51.394;12.340;2023-02-19T12:39:44;3.67;;;1.60;;
23300;SDS011;11819;51.394;12.340;2023-02-19T12:45:15;3.67;;;2.05;;
23300;SDS011;11819;51.394;12.340;2023-02-19T12:47:46;5.37;;;1.87;;
23300;SDS011;11819;51.394;12.340;2023-02-19T12:50:28;5.63;;;1.50;;
23300;SDS011;11819;51.394;12.340;2023-02-19T12:52:56;3.63;;;2.03;;
23300;SDS011;11819;51.394;12.340;2023-02-19T12:55:28;3.67;;;1.85;;
23300;SDS011;11819;51.394;12.340;2023-02-19T12:57:58;5.03;;;1.93;;
23300;SDS011;11819;51.394;12.340;2023-02-19T13:00:30;4.00;;;1.83;;
23300;SDS011;11819;51.394;12.340;2023-02-19T13:03:25;3.03;;;1.70;;
23300;SDS011;11819;51.394;12.340;2023-02-19T13:05:58;6.57;;;2.00;;
23300;SDS011;11819;51.394;12.340;2023-02-19T13:08:52;7.37;;;2.50;;
23300;SDS011;11819;51.394;12.340;2023-02-19T13:11:28;4.70;;;2.10;;
23300;SDS011;11819;51.394;12.340;2023-02-19T13:16:47;2.27;;;1.57;;
23300;SDS011;11819;51.394;12.340;2023-02-19T13:19:16;7.15;;;1.80;;
23300;SDS011;11819;51.394;12.340;2023-02-19T13:21:42;2.80;;;1.63;;
23300;SDS011;11819;51.394;12.340;2023-02-19T13:24:33;3.90;;;1.83;;
23300;SDS011;11819;51.394;12.340;2023-02-19T13:27:05;2.43;;;1.50;;
23300;SDS011;11819;51.394;12.340;2023-02-19T13:30:05;4.07;;;1.53;;
23300;SDS011;11819;51.394;12.340;2023-02-19T13:35:24;5.15;;;2.20;;
23300;SDS011;11819;51.394;12.340;2023-02-19T13:38:20;4.65;;;1.75;;
23300;SDS011;11819;51.394;12.340;2023-02-19T13:40:52;4.47;;;2.33;;
23300;SDS011;11819;51.394;12.340;2023-02-19T13:43:24;3.08;;;1.63;;
23300;SDS011;11819;51.394;12.340;2023-02-19T13:45:54;2.55;;;1.50;;
23300;SDS011;11819;51.394;12.340;2023-02-19T13:50:48;2.90;;;1.73;;
23300;SDS011;11819;51.394;12.340;2023-02-19T14:05:00;5.25;;;2.08;;
23300;SDS011;11819;51.394;12.340;2023-02-19T14:14:41;4.57;;;2.10;;
23300;SDS011;11819;51.394;12.340;2023-02-19T14:25:33;3.10;;;1.98;;
23300;SDS011;11819;51.394;12.340;2023-02-19T14:30:38;8.07;;;2.78;;
23300;SDS011;11819;51.394;12.340;2023-02-19T14:35:56;4.00;;;1.85;;
23300;SDS011;11819;51.394;12.340;2023-02-19T14:38:32;2.80;;;1.75;;
23300;SDS011;11819;51.394;12.340;2023-02-19T14:40:59;3.72;;;1.80;;
23300;SDS011;11819;51.394;12.340;2023-02-19T14:43:25;3.38;;;1.92;;
23300;SDS011;11819;51.394;12.340;2023-02-19T14:46:53;6.80;;;2.63;;
23300;SDS011;11819;51.394;12.340;2023-02-19T14:48:53;2.85;;;1.40;;
23300;SDS011;11819;51.394;12.340;2023-02-19T14:51:24;5.05;;;1.50;;
23300;SDS011;11819;51.394;12.340;2023-02-19T14:53:56;7.80;;;1.90;;
23300;SDS011;11819;51.394;12.340;2023-02-19T14:56:26;3.97;;;1.50;;
23300;SDS011;11819;51.394;12.340;2023-02-19T15:01:33;2.03;;;1.20;;
23300;SDS011;11819;51.394;12.340;2023-02-19T15:04:00;4.22;;;1.80;;
23300;SDS011;11819;51.394;12.340;2023-02-19T15:06:26;4.47;;;1.52;;
23300;SDS011;11819;51.394;12.340;2023-02-19T15:08:57;2.75;;;1.58;;
23300;SDS011;11819;51.394;12.340;2023-02-19T15:11:27;2.25;;;1.20;;
23300;SDS011;11819;51.394;12.340;2023-02-19T15:13:57;4.95;;;1.52;;
23300;SDS011;11819;51.394;12.340;2023-02-19T15:16:27;3.83;;;1.38;;
23300;SDS011;11819;51.394;12.340;2023-02-19T15:18:55;3.20;;;1.30;;
23300;SDS011;11819;51.394;12.340;2023-02-19T15:21:30;5.22;;;1.52;;
23300;SDS011;11819;51.394;12.340;2023-02-19T15:24:04;3.22;;;1.27;;
23300;SDS011;11819;51.394;12.340;2023-02-19T15:26:32;2.77;;;1.30;;
23300;SDS011;11819;51.394;12.340;2023-02-19T15:29:12;1.47;;;1.37;;
23300;SDS011;11819;51.394;12.340;2023-02-19T15:31:53;3.70;;;1.10;;
23300;SDS011;11819;51.394;12.340;2023-02-19T15:34:22;3.20;;;1.07;;
23300;SDS011;11819;51.394;12.340;2023-02-19T15:36:50;3.55;;;1.13;;
23300;SDS011;11819;51.394;12.340;2023-02-19T15:39:20;3.05;;;1.23;;
23300;SDS011;11819;51.394;12.340;2023-02-19T15:41:55;6.73;;;1.57;;
23300;SDS011;11819;51.394;12.340;2023-02-19T15:44:28;2.40;;;1.25;;
23300;SDS011;11819;51.394;12.340;2023-02-19T15:47:50;2.50;;;1.20;;
23300;SDS011;11819;51.394;12.340;2023-02-19T15:49:59;4.07;;;1.40;;
23300;SDS011;11819;51.394;12.340;2023-02-19T15:55:16;3.93;;;1.60;;
23300;SDS011;11819;51.394;12.340;2023-02-19T15:57:44;4.53;;;1.40;;
23300;SDS011;11819;51.394;12.340;2023-02-19T16:00:38;3.00;;;1.20;;
23300;SDS011;11819;51.394;12.340;2023-02-19T16:03:17;2.77;;;1.20;;
23300;SDS011;11819;51.394;12.340;2023-02-19T16:05:44;3.40;;;1.60;;
23300;SDS011;11819;51.394;12.340;2023-02-19T16:10:35;3.50;;;1.47;;
23300;SDS011;11819;51.394;12.340;2023-02-19T16:13:03;3.67;;;1.77;;
23300;SDS011;11819;51.394;12.340;2023-02-19T16:15:30;4.53;;;1.58;;
23300;SDS011;11819;51.394;12.340;2023-02-19T16:17:57;6.87;;;2.90;;
23300;SDS011;11819;51.394;12.340;2023-02-19T16:20:33;3.23;;;1.67;;
23300;SDS011;11819;51.394;12.340;2023-02-19T16:23:03;7.30;;;3.37;;
23300;SDS011;11819;51.394;12.340;2023-02-19T16:28:08;4.87;;;2.03;;
23300;SDS011;11819;51.394;12.340;2023-02-19T16:30:38;6.20;;;2.10;;
23300;SDS011;11819;51.394;12.340;2023-02-19T16:35:57;5.00;;;2.00;;
23300;SDS011;11819;51.394;12.340;2023-02-19T16:38:39;5.30;;;1.90;;
23300;SDS011;11819;51.394;12.340;2023-02-19T16:41:05;5.93;;;2.30;;
23300;SDS011;11819;51.394;12.340;2023-02-19T16:43:38;4.80;;;2.10;;
23300;SDS011;11819;51.394;12.340;2023-02-19T16:46:07;5.83;;;1.70;;
23300;SDS011;11819;51.394;12.340;2023-02-19T16:48:35;3.93;;;1.90;;
23300;SDS011;11819;51.394;12.340;2023-02-19T16:51:00;7.30;;;2.40;;
23300;SDS011;11819;51.394;12.340;2023-02-19T16:53:28;5.17;;;2.27;;
23300;SDS011;11819;51.394;12.340;2023-02-19T16:55:55;5.20;;;2.43;;
23300;SDS011;11819;51.394;12.340;2023-02-19T16:58:20;7.27;;;3.10;;
23300;SDS011;11819;51.394;12.340;2023-02-19T17:00:46;8.83;;;3.27;;
23300;SDS011;11819;51.394;12.340;2023-02-19T17:03:16;6.27;;;2.80;;
23300;SDS011;11819;51.394;12.340;2023-02-19T17:05:45;6.87;;;3.80;;
23300;SDS011;11819;51.394;12.340;2023-02-19T17:11:02;5.87;;;3.73;;
23300;SDS011;11819;51.394;12.340;2023-02-19T17:13:34;15.17;;;10.30;;
23300;SDS011;11819;51.394;12.340;2023-02-19T17:16:00;9.90;;;5.50;;
23300;SDS011;11819;51.394;12.340;2023-02-19T17:18:26;8.00;;;5.93;;